createdAt,value
2022-12-31T00:01:57.551Z,8.38
2022-12-31T00:04:30.197Z,8.40
2022-12-31T00:07:02.867Z,7.70
2022-12-31T00:09:35.393Z,8.90
2022-12-31T00:12:08.032Z,8.20
2022-12-31T00:14:40.524Z,9.07
2022-12-31T00:17:13.084Z,7.70
2022-12-31T00:19:45.642Z,8.35
2022-12-31T00:22:18.320Z,7.80
2022-12-31T00:24:50.925Z,8.00
2022-12-31T00:27:23.442Z,7.78
2022-12-31T00:30:00.886Z,8.57
2022-12-31T00:32:39.773Z,7.45
2022-12-31T00:35:12.420Z,7.45
2022-12-31T00:37:44.973Z,8.13
2022-12-31T00:40:17.771Z,8.55
2022-12-31T00:42:50.246Z,7.93
2022-12-31T00:45:22.845Z,8.45
2022-12-31T00:47:55.440Z,7.72
2022-12-31T00:50:27.948Z,7.93
2022-12-31T00:53:00.580Z,8.30
2022-12-31T00:55:33.197Z,8.52
2022-12-31T00:58:05.942Z,8.13
2022-12-31T01:00:39.263Z,7.85
2022-12-31T01:05:44.374Z,6.88
2022-12-31T01:08:18.077Z,7.05
2022-12-31T01:11:09.677Z,7.40
2022-12-31T01:13:42.359Z,7.45
2022-12-31T01:16:15.864Z,6.90
2022-12-31T01:18:48.756Z,7.03
2022-12-31T01:21:22.419Z,7.07
2022-12-31T01:23:55.165Z,7.80
2022-12-31T01:26:28.400Z,8.02
2022-12-31T01:31:34.916Z,6.93
2022-12-31T01:34:08.197Z,7.05
2022-12-31T01:36:40.744Z,6.32
2022-12-31T01:39:13.717Z,6.43
2022-12-31T01:41:47.961Z,6.82
2022-12-31T01:44:26.265Z,6.53
2022-12-31T01:47:03.231Z,6.53
2022-12-31T01:49:51.820Z,6.60
2022-12-31T01:52:34.979Z,5.95
2022-12-31T01:55:35.949Z,7.05
2022-12-31T01:58:19.179Z,7.13
2022-12-31T02:00:53.405Z,6.10
2022-12-31T02:03:27.790Z,6.72
2022-12-31T02:06:08.013Z,6.57
2022-12-31T02:08:42.414Z,6.35
2022-12-31T02:11:25.031Z,6.05
2022-12-31T02:14:02.434Z,5.80
2022-12-31T02:16:43.883Z,6.15
2022-12-31T02:19:53.544Z,6.40
2022-12-31T02:22:54.107Z,6.43
2022-12-31T02:25:32.501Z,6.60
2022-12-31T02:28:21.182Z,6.50
2022-12-31T02:31:11.715Z,6.72
2022-12-31T02:33:58.697Z,6.68
2022-12-31T02:36:36.558Z,7.32
2022-12-31T02:39:11.037Z,6.53
2022-12-31T02:41:52.782Z,7.15
2022-12-31T02:44:35.823Z,7.75
2022-12-31T02:47:38.785Z,6.97
2022-12-31T02:50:23.273Z,8.02
2022-12-31T02:52:59.133Z,6.85
2022-12-31T02:55:34.447Z,8.32
2022-12-31T02:58:45.848Z,7.25
2022-12-31T03:01:43.640Z,7.95
2022-12-31T03:04:33.346Z,7.50
2022-12-31T03:07:10.431Z,7.55
2022-12-31T03:09:42.978Z,7.65
2022-12-31T03:12:45.705Z,7.18
2022-12-31T03:15:21.303Z,7.30
2022-12-31T03:18:01.282Z,7.10
2022-12-31T03:21:02.282Z,6.97
2022-12-31T03:24:05.347Z,6.78
2022-12-31T03:26:37.809Z,7.05
2022-12-31T03:29:10.395Z,7.00
2022-12-31T03:31:42.970Z,6.38
2022-12-31T03:34:15.903Z,6.65
2022-12-31T03:36:48.403Z,7.20
2022-12-31T03:39:21.019Z,6.27
2022-12-31T03:41:53.608Z,5.65
2022-12-31T03:44:26.125Z,6.15
2022-12-31T03:46:58.679Z,6.20
2022-12-31T03:49:31.318Z,5.78
2022-12-31T03:52:03.881Z,6.00
2022-12-31T03:54:36.389Z,5.20
2022-12-31T03:57:09.013Z,5.32
2022-12-31T03:59:41.518Z,5.07
2022-12-31T04:02:14.208Z,4.88
2022-12-31T04:04:47.172Z,5.05
2022-12-31T04:07:19.978Z,4.85
2022-12-31T04:09:52.541Z,4.55
2022-12-31T04:12:25.783Z,4.88
2022-12-31T04:14:59.076Z,5.30
2022-12-31T04:20:04.687Z,5.10
2022-12-31T04:22:37.359Z,4.45
2022-12-31T04:25:11.689Z,4.85
2022-12-31T04:27:44.419Z,3.80
2022-12-31T04:30:17.294Z,4.82
2022-12-31T04:32:49.907Z,4.43
2022-12-31T04:35:22.403Z,4.20
2022-12-31T04:37:54.987Z,4.37
2022-12-31T04:40:28.852Z,4.60
2022-12-31T04:43:01.412Z,4.47
2022-12-31T04:45:34.019Z,5.03
2022-12-31T04:48:06.929Z,4.75
2022-12-31T04:50:39.501Z,4.68
2022-12-31T04:53:12.082Z,5.22
2022-12-31T04:55:46.305Z,4.95
2022-12-31T04:58:19.027Z,5.70
2022-12-31T05:00:54.820Z,4.93
2022-12-31T05:03:28.264Z,4.68
2022-12-31T05:06:17.032Z,5.43
2022-12-31T05:08:50.631Z,5.25
2022-12-31T05:11:23.458Z,4.70
2022-12-31T05:13:55.905Z,5.25
2022-12-31T05:16:28.510Z,5.27
2022-12-31T05:19:01.157Z,4.47
2022-12-31T05:21:33.647Z,5.00
2022-12-31T05:24:06.618Z,4.88
2022-12-31T05:26:39.182Z,5.60
2022-12-31T05:29:11.776Z,5.32
2022-12-31T05:31:44.371Z,5.07
2022-12-31T05:34:16.905Z,5.55
2022-12-31T05:36:49.611Z,5.10
2022-12-31T05:39:22.323Z,4.93
2022-12-31T05:41:54.907Z,5.43
2022-12-31T05:44:27.535Z,5.38
2022-12-31T05:47:00.106Z,5.18
2022-12-31T05:49:32.679Z,5.15
2022-12-31T05:52:05.293Z,5.93
2022-12-31T05:54:38.270Z,4.95
2022-12-31T05:57:11.299Z,5.60
2022-12-31T05:59:43.924Z,5.53
2022-12-31T06:02:16.587Z,5.28
2022-12-31T06:04:49.438Z,5.15
2022-12-31T06:07:21.999Z,5.28
2022-12-31T06:09:54.614Z,5.65
2022-12-31T06:12:27.624Z,5.43
2022-12-31T06:15:00.155Z,6.22
2022-12-31T06:17:32.897Z,5.90
2022-12-31T06:20:12.260Z,5.25
2022-12-31T06:22:45.567Z,6.05
2022-12-31T06:25:18.264Z,6.50
2022-12-31T06:27:50.818Z,5.88
2022-12-31T06:30:23.492Z,5.80
2022-12-31T06:32:57.385Z,6.70
2022-12-31T06:35:32.974Z,6.25
2022-12-31T06:38:05.734Z,5.95
2022-12-31T06:40:38.684Z,6.35
2022-12-31T06:43:11.482Z,5.60
2022-12-31T06:45:46.346Z,6.78
2022-12-31T06:48:18.964Z,7.07
2022-12-31T06:50:51.479Z,5.80
2022-12-31T06:53:24.172Z,6.75
2022-12-31T06:55:57.016Z,6.13
2022-12-31T06:58:29.812Z,6.15
2022-12-31T07:01:27.288Z,6.88
2022-12-31T07:04:33.548Z,6.30
2022-12-31T07:07:34.134Z,6.85
2022-12-31T07:10:25.722Z,7.22
2022-12-31T07:13:07.861Z,7.25
2022-12-31T07:15:53.207Z,8.05
2022-12-31T07:18:44.586Z,7.38
2022-12-31T07:21:21.913Z,7.80
2022-12-31T07:23:55.936Z,8.63
2022-12-31T07:26:43.385Z,8.15
2022-12-31T07:29:19.111Z,7.60
2022-12-31T07:32:02.640Z,7.40
2022-12-31T07:37:28.577Z,7.95
2022-12-31T07:40:19.714Z,7.60
2022-12-31T07:43:15.878Z,8.23
2022-12-31T07:46:12.705Z,7.65
2022-12-31T07:48:45.737Z,7.60
2022-12-31T07:51:18.576Z,8.20
2022-12-31T07:53:51.293Z,8.40
2022-12-31T07:56:24.006Z,8.18
2022-12-31T07:59:23.914Z,8.45
2022-12-31T08:02:17.368Z,7.68
2022-12-31T08:05:04.891Z,8.85
2022-12-31T08:07:43.009Z,8.13
2022-12-31T08:10:34.542Z,8.90
2022-12-31T08:13:12.171Z,8.77
2022-12-31T08:15:44.997Z,9.30
2022-12-31T08:18:18.076Z,9.60
2022-12-31T08:21:03.671Z,8.63
2022-12-31T08:23:43.881Z,8.05
2022-12-31T08:26:49.526Z,9.63
2022-12-31T08:29:31.311Z,8.00
2022-12-31T08:32:32.885Z,7.97
2022-12-31T08:35:44.016Z,8.32
2022-12-31T08:38:44.024Z,8.50
2022-12-31T08:41:40.684Z,9.23
2022-12-31T08:44:23.520Z,8.95
2022-12-31T08:47:23.176Z,7.82
2022-12-31T08:49:56.008Z,8.55
2022-12-31T08:52:28.958Z,7.50
2022-12-31T08:55:02.945Z,7.75
2022-12-31T08:58:04.689Z,7.78
2022-12-31T09:00:38.514Z,6.95
2022-12-31T09:03:24.822Z,7.13
2022-12-31T09:06:34.012Z,5.97
2022-12-31T09:09:38.621Z,6.70
2022-12-31T09:12:17.027Z,5.75
2022-12-31T09:14:58.594Z,7.47
2022-12-31T09:17:45.070Z,7.72
2022-12-31T09:20:42.725Z,7.25
2022-12-31T09:23:16.125Z,6.97
2022-12-31T09:26:12.836Z,5.82
2022-12-31T09:28:50.072Z,6.00
2022-12-31T09:31:36.853Z,5.68
2022-12-31T09:34:24.549Z,4.95
2022-12-31T09:37:06.998Z,4.70
2022-12-31T09:39:42.564Z,5.60
2022-12-31T09:42:18.573Z,5.10
2022-12-31T09:45:12.621Z,5.50
2022-12-31T09:48:24.048Z,5.28
2022-12-31T09:51:23.367Z,5.72
2022-12-31T09:54:06.602Z,5.30
2022-12-31T09:57:13.160Z,5.30
2022-12-31T10:00:06.452Z,4.88
2022-12-31T10:02:56.588Z,5.55
2022-12-31T10:05:53.021Z,5.82
2022-12-31T10:08:52.429Z,5.82
2022-12-31T10:11:43.333Z,6.10
2022-12-31T10:14:27.914Z,7.10
2022-12-31T10:17:06.745Z,7.38
2022-12-31T10:19:45.441Z,7.32
2022-12-31T10:22:38.238Z,7.22
2022-12-31T10:25:38.712Z,7.50
2022-12-31T10:28:33.034Z,7.32
2022-12-31T10:31:20.712Z,6.05
2022-12-31T10:34:17.596Z,7.03
2022-12-31T10:36:58.312Z,6.63
2022-12-31T10:39:59.430Z,5.93
2022-12-31T10:42:53.503Z,6.57
2022-12-31T10:45:53.129Z,5.40
2022-12-31T10:48:53.103Z,6.38
2022-12-31T10:51:54.047Z,5.80
2022-12-31T10:55:05.420Z,5.80
2022-12-31T10:58:04.507Z,6.07
2022-12-31T11:01:16.255Z,6.03
2022-12-31T11:04:30.418Z,5.22
2022-12-31T11:10:02.849Z,5.03
2022-12-31T11:13:11.480Z,5.10
2022-12-31T11:16:14.921Z,4.22
2022-12-31T11:19:07.702Z,4.50
2022-12-31T11:22:15.735Z,5.30
2022-12-31T11:24:57.726Z,5.30
2022-12-31T11:27:53.101Z,5.72
2022-12-31T11:30:51.875Z,6.20
2022-12-31T11:33:55.383Z,4.30
2022-12-31T11:37:13.526Z,5.32
2022-12-31T11:40:04.825Z,4.72
2022-12-31T11:42:40.147Z,4.50
2022-12-31T11:45:31.304Z,4.13
2022-12-31T11:48:32.943Z,3.55
2022-12-31T11:51:42.103Z,3.70
2022-12-31T11:54:30.076Z,3.72
2022-12-31T11:57:05.525Z,3.47
2022-12-31T11:59:38.072Z,3.80
2022-12-31T12:02:19.411Z,2.95
2022-12-31T12:04:54.347Z,2.88
2022-12-31T12:07:27.799Z,4.05
2022-12-31T12:10:11.890Z,3.83
2022-12-31T12:12:44.576Z,3.40
2022-12-31T12:15:25.205Z,3.47
2022-12-31T12:18:01.809Z,3.15
2022-12-31T12:20:40.460Z,3.60
2022-12-31T12:23:24.359Z,3.20
2022-12-31T12:25:57.024Z,3.25
2022-12-31T12:28:44.306Z,3.55
2022-12-31T12:31:23.451Z,3.80
2022-12-31T12:33:56.299Z,3.60
2022-12-31T12:36:28.897Z,3.55
2022-12-31T12:39:06.296Z,3.53
2022-12-31T12:41:38.878Z,2.88
2022-12-31T12:44:17.067Z,2.90
2022-12-31T12:46:53.818Z,2.88
2022-12-31T12:49:33.072Z,3.35
2022-12-31T12:52:14.772Z,2.67
2022-12-31T12:55:05.451Z,3.10
2022-12-31T12:57:55.888Z,2.83
2022-12-31T13:00:38.895Z,2.42
2022-12-31T13:03:32.337Z,3.10
2022-12-31T13:06:24.928Z,3.72
2022-12-31T13:09:20.344Z,3.20
2022-12-31T13:12:08.150Z,3.00
2022-12-31T13:14:57.039Z,3.45
2022-12-31T13:18:01.933Z,3.22
2022-12-31T13:20:53.714Z,2.88
2022-12-31T13:23:39.849Z,2.70
2022-12-31T13:26:18.943Z,3.58
2022-12-31T13:28:53.860Z,3.05
2022-12-31T13:31:36.817Z,2.90
2022-12-31T13:34:22.549Z,3.40
2022-12-31T13:37:00.873Z,3.17
2022-12-31T13:39:39.612Z,2.60
2022-12-31T13:42:42.814Z,3.10
2022-12-31T13:45:42.465Z,2.45
2022-12-31T13:48:20.552Z,2.50
2022-12-31T13:51:12.402Z,2.83
2022-12-31T13:54:27.206Z,2.60
2022-12-31T13:57:06.024Z,2.55
2022-12-31T13:59:43.483Z,2.60
2022-12-31T14:02:57.171Z,2.80
2022-12-31T14:05:36.507Z,3.03
2022-12-31T14:08:10.118Z,3.95
2022-12-31T14:10:49.203Z,3.03
2022-12-31T14:13:42.522Z,4.03
2022-12-31T14:16:24.309Z,3.58
2022-12-31T14:19:17.941Z,3.55
2022-12-31T14:24:48.271Z,3.28
2022-12-31T14:27:37.088Z,3.63
2022-12-31T14:30:26.143Z,4.13
2022-12-31T14:33:32.907Z,3.78
2022-12-31T14:36:25.253Z,3.85
2022-12-31T14:39:14.589Z,3.70
2022-12-31T14:41:58.597Z,4.38
2022-12-31T14:45:26.980Z,3.95
2022-12-31T14:48:37.990Z,4.05
2022-12-31T14:51:12.676Z,4.13
2022-12-31T14:53:57.024Z,4.57
2022-12-31T14:56:46.229Z,4.40
2022-12-31T14:59:29.835Z,4.72
2022-12-31T15:02:02.544Z,4.25
2022-12-31T15:04:44.950Z,5.65
2022-12-31T15:07:26.896Z,5.40
2022-12-31T15:10:36.473Z,4.40
2022-12-31T15:13:17.973Z,4.68
2022-12-31T15:16:23.463Z,4.28
2022-12-31T15:19:13.912Z,4.05
2022-12-31T15:21:49.567Z,3.92
2022-12-31T15:24:24.906Z,5.22
2022-12-31T15:27:38.065Z,4.60
2022-12-31T15:30:30.913Z,4.85
2022-12-31T15:33:46.488Z,5.93
2022-12-31T15:36:23.971Z,5.85
2022-12-31T15:39:11.781Z,6.03
2022-12-31T15:42:18.608Z,6.45
2022-12-31T15:45:03.033Z,5.85
2022-12-31T15:47:40.495Z,5.28
2022-12-31T15:50:18.196Z,4.97
2022-12-31T15:52:58.182Z,5.15
2022-12-31T15:55:53.387Z,5.88
2022-12-31T15:58:33.430Z,6.00
2022-12-31T16:01:12.631Z,5.75
2022-12-31T16:04:10.984Z,6.18
2022-12-31T16:06:50.316Z,6.97
2022-12-31T16:09:27.465Z,5.72
2022-12-31T16:12:02.657Z,6.53
2022-12-31T16:14:42.802Z,6.78
2022-12-31T16:17:29.214Z,6.38
2022-12-31T16:20:22.359Z,6.75
2022-12-31T16:23:00.335Z,6.15
2022-12-31T16:25:33.983Z,6.53
2022-12-31T16:28:06.780Z,7.82
2022-12-31T16:30:40.350Z,6.68
2022-12-31T16:33:15.705Z,6.22
2022-12-31T16:35:56.860Z,7.85
2022-12-31T16:38:37.079Z,8.07
2022-12-31T16:41:20.420Z,7.43
2022-12-31T16:43:53.064Z,7.93
2022-12-31T16:46:31.309Z,8.48
2022-12-31T16:49:15.139Z,7.85
2022-12-31T16:51:49.815Z,7.32
2022-12-31T16:54:43.913Z,7.40
2022-12-31T16:57:22.826Z,6.55
2022-12-31T17:00:05.778Z,6.47
2022-12-31T17:02:40.852Z,6.80
2022-12-31T17:05:22.793Z,6.03
2022-12-31T17:07:55.493Z,6.45
2022-12-31T17:10:36.488Z,7.28
2022-12-31T17:13:29.327Z,6.53
2022-12-31T17:16:03.894Z,6.63
2022-12-31T17:18:38.913Z,6.80
2022-12-31T17:21:12.109Z,7.40
2022-12-31T17:26:30.231Z,6.25
2022-12-31T17:29:06.232Z,9.10
2022-12-31T17:31:41.140Z,9.60
2022-12-31T17:34:13.863Z,10.50
2022-12-31T17:37:02.233Z,10.18
2022-12-31T17:39:45.800Z,10.20
2022-12-31T17:45:16.111Z,9.88
2022-12-31T17:47:51.368Z,8.77
2022-12-31T17:50:26.194Z,9.38
2022-12-31T17:53:11.283Z,7.88
2022-12-31T17:55:46.271Z,6.97
2022-12-31T17:58:32.006Z,7.03
2022-12-31T18:01:08.914Z,6.65
2022-12-31T18:03:41.545Z,7.47
2022-12-31T18:06:17.088Z,6.63
2022-12-31T18:08:49.925Z,6.53
2022-12-31T18:11:24.291Z,7.10
2022-12-31T18:13:57.176Z,6.68
2022-12-31T18:16:30.043Z,6.40
2022-12-31T18:19:02.892Z,6.90
2022-12-31T18:21:36.333Z,7.25
2022-12-31T18:24:20.115Z,6.93
2022-12-31T18:26:55.687Z,6.88
2022-12-31T18:29:28.289Z,6.88
2022-12-31T18:32:01.416Z,7.10
2022-12-31T18:34:33.933Z,6.88
2022-12-31T18:37:22.019Z,7.25
2022-12-31T18:39:58.001Z,6.13
2022-12-31T18:42:30.563Z,7.15
2022-12-31T18:45:03.632Z,7.00
2022-12-31T18:47:37.932Z,7.45
2022-12-31T18:50:15.674Z,6.97
2022-12-31T18:52:48.371Z,7.88
2022-12-31T18:55:41.910Z,5.90
2022-12-31T18:58:14.583Z,6.53
2022-12-31T19:00:48.672Z,8.32
2022-12-31T19:03:23.599Z,8.02
2022-12-31T19:05:56.623Z,8.50
2022-12-31T19:08:29.273Z,8.85
2022-12-31T19:11:01.935Z,9.90
2022-12-31T19:13:34.482Z,8.38
2022-12-31T19:16:08.000Z,8.30
2022-12-31T19:18:41.876Z,9.82
2022-12-31T19:21:20.542Z,9.43
2022-12-31T19:23:53.114Z,11.45
2022-12-31T19:26:25.677Z,11.73
2022-12-31T19:29:28.267Z,12.23
2022-12-31T19:32:02.597Z,10.90
2022-12-31T19:34:35.585Z,11.70
2022-12-31T19:37:09.734Z,11.23
2022-12-31T19:39:42.437Z,11.55
2022-12-31T19:42:16.357Z,12.02
2022-12-31T19:44:49.049Z,11.80
2022-12-31T19:47:21.579Z,11.57
2022-12-31T19:49:54.246Z,11.65
2022-12-31T19:52:26.768Z,11.70
2022-12-31T19:54:59.360Z,12.27
2022-12-31T19:57:31.929Z,10.73
2022-12-31T20:00:06.009Z,12.02
2022-12-31T20:02:46.642Z,11.63
2022-12-31T20:05:19.841Z,12.57
2022-12-31T20:07:52.402Z,11.75
2022-12-31T20:10:25.039Z,13.25
2022-12-31T20:12:57.584Z,13.50
2022-12-31T20:15:30.237Z,13.15
2022-12-31T20:18:02.833Z,13.25
2022-12-31T20:20:35.445Z,14.02
2022-12-31T20:23:08.029Z,12.73
2022-12-31T20:25:40.747Z,12.80
2022-12-31T20:28:13.257Z,13.43
2022-12-31T20:30:46.375Z,12.85
2022-12-31T20:35:52.133Z,11.27
2022-12-31T20:38:25.353Z,12.90
2022-12-31T20:41:10.064Z,12.48
2022-12-31T20:43:43.105Z,12.63
2022-12-31T20:46:25.064Z,11.75
2022-12-31T20:49:01.019Z,12.27
2022-12-31T20:51:35.513Z,12.63
2022-12-31T20:54:10.806Z,12.63
2022-12-31T20:56:43.671Z,12.77
2022-12-31T20:59:16.210Z,13.38
2022-12-31T21:02:19.869Z,14.48
2022-12-31T21:04:42.022Z,16.03
2022-12-31T21:07:14.754Z,14.68
2022-12-31T21:09:47.335Z,13.82
2022-12-31T21:12:38.259Z,14.63
2022-12-31T21:15:12.783Z,14.77
2022-12-31T21:17:45.453Z,15.77
2022-12-31T21:20:18.090Z,15.30
2022-12-31T21:22:50.577Z,14.93
2022-12-31T21:25:23.157Z,15.20
2022-12-31T21:27:55.663Z,15.20
2022-12-31T21:30:30.616Z,14.25
2022-12-31T21:33:03.204Z,14.45
2022-12-31T21:35:50.134Z,14.82
2022-12-31T21:38:26.880Z,15.13
2022-12-31T21:41:03.793Z,15.88
2022-12-31T21:43:36.377Z,14.60
2022-12-31T21:46:09.961Z,13.93
2022-12-31T21:48:42.498Z,14.57
2022-12-31T21:51:16.961Z,15.95
2022-12-31T21:53:49.554Z,13.77
2022-12-31T21:56:22.890Z,14.50
2022-12-31T21:59:17.421Z,14.55
2022-12-31T22:02:08.232Z,14.57
2022-12-31T22:05:01.942Z,13.40
2022-12-31T22:07:33.577Z,13.85
2022-12-31T22:10:06.547Z,13.18
2022-12-31T22:12:39.141Z,13.65
2022-12-31T22:15:15.223Z,13.50
2022-12-31T22:17:48.784Z,13.45
2022-12-31T22:20:29.506Z,13.20
2022-12-31T22:23:02.242Z,13.70
2022-12-31T22:25:35.654Z,12.93
2022-12-31T22:31:01.123Z,13.20
2022-12-31T22:33:37.708Z,13.68
2022-12-31T22:36:17.865Z,13.43
2022-12-31T22:38:54.354Z,15.82
2022-12-31T22:41:29.722Z,16.55
2022-12-31T22:44:04.779Z,16.42
2022-12-31T22:46:49.797Z,15.63
2022-12-31T22:49:22.607Z,16.80
2022-12-31T22:51:58.962Z,17.52
2022-12-31T22:54:35.724Z,18.38
2022-12-31T22:57:08.285Z,17.38
2022-12-31T22:59:40.865Z,17.25
2022-12-31T23:02:13.373Z,16.67
2022-12-31T23:04:46.475Z,16.13
2022-12-31T23:07:19.069Z,18.98
2022-12-31T23:10:10.089Z,40.65
2022-12-31T23:12:42.620Z,45.08
2022-12-31T23:15:33.342Z,37.25
2022-12-31T23:18:24.132Z,38.25
2022-12-31T23:21:14.939Z,47.42
2022-12-31T23:23:47.479Z,58.78
2022-12-31T23:26:21.274Z,63.53
2022-12-31T23:28:53.909Z,64.40
2022-12-31T23:31:28.957Z,65.22
2022-12-31T23:34:01.559Z,61.75
2022-12-31T23:36:34.073Z,68.63
2022-12-31T23:39:06.609Z,66.18
2022-12-31T23:41:39.783Z,65.10
2022-12-31T23:44:12.595Z,74.38
2022-12-31T23:46:45.744Z,74.05
2022-12-31T23:49:18.353Z,68.07
2022-12-31T23:51:50.931Z,60.78
2022-12-31T23:54:23.626Z,62.10
2022-12-31T23:56:56.153Z,57.60
2022-12-31T23:59:28.821Z,60.80
